This is the latest recevied weather packets stored in our database for station/object TONGUE. If no packets are shown the sender has not sent any weather packets the latest 10 day(s).
| Time | Temp. | Humidity | Pressure | Rain* | Wind** | Luminosity | Snow |
|---|---|---|---|---|---|---|---|
| 1777153803 | 16.67° C | 49% | 0 hPa | - | - | - | - |
| 1777153203 | 16.11° C | 53% | 0 hPa | - | - | - | - |
| 1777152604 | 16.11° C | 52% | 0 hPa | - | - | - | - |
| 1777152003 | 16.67° C | 48% | 0 hPa | - | - | - | - |
| 1777151402 | 16.67° C | 40% | 0 hPa | - | - | - | - |
| 1777150803 | 17.22° C | 31% | 0 hPa | - | - | - | - |
| 1777150203 | 16.67° C | 34% | 0 hPa | - | - | - | - |
| 1777149603 | 16.67° C | 38% | 0 hPa | - | - | - | - |
| 1777149003 | 18.33° C | 18% | 0 hPa | - | - | - | - |
| 1777148403 | 18.33° C | 22% | 0 hPa | - | - | - | - |
| 1777147803 | 17.78° C | 23% | 0 hPa | - | - | - | - |
| 1777147203 | 17.22° C | 27% | 0 hPa | - | - | - | - |
| 1777146603 | 17.22° C | 28% | 0 hPa | - | - | - | - |
| 1777146003 | 16.67° C | 32% | 0 hPa | - | - | - | - |
| 1777145403 | 16.11° C | 34% | 0 hPa | - | - | - | - |
| 1777144803 | 15.56° C | 35% | 0 hPa | - | - | - | - |
| 1777144203 | 15.56° C | 36% | 0 hPa | - | - | - | - |
| 1777143604 | 15° C | 39% | 0 hPa | - | - | - | - |
| 1777143003 | 14.44° C | 37% | 0 hPa | - | - | - | - |
| 1777142403 | 14.44° C | 36% | 0 hPa | - | - | - | - |
| 1777141803 | 14.44° C | 42% | 0 hPa | - | - | - | - |
| 1777141203 | 13.89° C | 45% | 0 hPa | - | - | - | - |
| 1777140603 | 13.89° C | 50% | 0 hPa | - | - | - | - |
| 1777140004 | 12.78° C | 52% | 0 hPa | - | - | - | - |
| 1777139403 | 12.22° C | 54% | 0 hPa | - | - | - | - |
* Rain since midnight (hover to see other rain measurements)
** Current wind speed in m/s (hover to see current wind gust speed)